sensor_id;sensor_type;location;lat;lon;timestamp;P1;durP1;ratioP1;P2;durP2;ratioP2
21827;SDS011;11076;47.942;11.804;2023-06-10T00:04:46;7.78;;;6.65;;
21827;SDS011;11076;47.942;11.804;2023-06-10T00:09:49;8.77;;;7.13;;
21827;SDS011;11076;47.942;11.804;2023-06-10T00:14:52;9.77;;;6.82;;
21827;SDS011;11076;47.942;11.804;2023-06-10T00:19:55;8.48;;;6.80;;
21827;SDS011;11076;47.942;11.804;2023-06-10T00:24:58;13.73;;;6.85;;
21827;SDS011;11076;47.942;11.804;2023-06-10T00:30:03;9.52;;;7.53;;
21827;SDS011;11076;47.942;11.804;2023-06-10T00:35:08;10.88;;;8.25;;
21827;SDS011;11076;47.942;11.804;2023-06-10T00:40:11;7.97;;;7.10;;
21827;SDS011;11076;47.942;11.804;2023-06-10T00:45:14;8.95;;;7.18;;
21827;SDS011;11076;47.942;11.804;2023-06-10T00:50:16;11.73;;;7.95;;
21827;SDS011;11076;47.942;11.804;2023-06-10T00:55:19;9.88;;;7.72;;
21827;SDS011;11076;47.942;11.804;2023-06-10T01:00:22;8.13;;;7.30;;
21827;SDS011;11076;47.942;11.804;2023-06-10T01:05:24;10.27;;;7.22;;
21827;SDS011;11076;47.942;11.804;2023-06-10T01:16:09;10.95;;;8.88;;
21827;SDS011;11076;47.942;11.804;2023-06-10T01:21:20;16.00;;;9.50;;
21827;SDS011;11076;47.942;11.804;2023-06-10T01:26:24;10.05;;;8.75;;
21827;SDS011;11076;47.942;11.804;2023-06-10T01:31:34;10.68;;;8.70;;
21827;SDS011;11076;47.942;11.804;2023-06-10T01:36:51;9.77;;;8.55;;
21827;SDS011;11076;47.942;11.804;2023-06-10T01:41:57;11.65;;;9.23;;
21827;SDS011;11076;47.942;11.804;2023-06-10T01:46:59;11.32;;;9.98;;
21827;SDS011;11076;47.942;11.804;2023-06-10T01:52:02;13.82;;;9.20;;
21827;SDS011;11076;47.942;11.804;2023-06-10T01:57:07;11.93;;;9.43;;
21827;SDS011;11076;47.942;11.804;2023-06-10T02:02:10;12.57;;;9.13;;
21827;SDS011;11076;47.942;11.804;2023-06-10T02:07:13;12.13;;;10.18;;
21827;SDS011;11076;47.942;11.804;2023-06-10T02:12:15;11.43;;;9.40;;
21827;SDS011;11076;47.942;11.804;2023-06-10T02:17:19;12.68;;;9.25;;
21827;SDS011;11076;47.942;11.804;2023-06-10T02:22:22;11.43;;;10.13;;
21827;SDS011;11076;47.942;11.804;2023-06-10T02:27:25;13.20;;;11.45;;
21827;SDS011;11076;47.942;11.804;2023-06-10T02:32:28;14.48;;;11.48;;
21827;SDS011;11076;47.942;11.804;2023-06-10T02:37:32;15.38;;;11.38;;
21827;SDS011;11076;47.942;11.804;2023-06-10T02:42:35;13.18;;;11.23;;
21827;SDS011;11076;47.942;11.804;2023-06-10T02:47:39;11.95;;;9.85;;
21827;SDS011;11076;47.942;11.804;2023-06-10T02:52:46;13.45;;;10.57;;
21827;SDS011;11076;47.942;11.804;2023-06-10T02:57:50;13.43;;;10.57;;
21827;SDS011;11076;47.942;11.804;2023-06-10T03:02:54;13.15;;;10.93;;
21827;SDS011;11076;47.942;11.804;2023-06-10T03:08:03;13.30;;;10.32;;
21827;SDS011;11076;47.942;11.804;2023-06-10T03:13:09;16.25;;;12.30;;
21827;SDS011;11076;47.942;11.804;2023-06-10T03:18:12;13.98;;;10.57;;
21827;SDS011;11076;47.942;11.804;2023-06-10T03:23:16;12.52;;;11.13;;
21827;SDS011;11076;47.942;11.804;2023-06-10T03:28:18;12.55;;;10.95;;
21827;SDS011;11076;47.942;11.804;2023-06-10T03:33:21;15.88;;;10.98;;
21827;SDS011;11076;47.942;11.804;2023-06-10T03:38:24;13.00;;;10.45;;
21827;SDS011;11076;47.942;11.804;2023-06-10T03:43:28;14.77;;;10.93;;
21827;SDS011;11076;47.942;11.804;2023-06-10T03:48:30;11.98;;;10.10;;
21827;SDS011;11076;47.942;11.804;2023-06-10T03:53:33;11.77;;;10.05;;
21827;SDS011;11076;47.942;11.804;2023-06-10T03:58:35;13.07;;;9.57;;
21827;SDS011;11076;47.942;11.804;2023-06-10T04:03:39;13.68;;;10.30;;
21827;SDS011;11076;47.942;11.804;2023-06-10T04:08:44;12.43;;;9.70;;
21827;SDS011;11076;47.942;11.804;2023-06-10T04:13:46;11.60;;;10.13;;
21827;SDS011;11076;47.942;11.804;2023-06-10T04:18:51;13.35;;;10.60;;
21827;SDS011;11076;47.942;11.804;2023-06-10T04:23:54;14.07;;;9.57;;
21827;SDS011;11076;47.942;11.804;2023-06-10T04:28:56;12.55;;;9.48;;
21827;SDS011;11076;47.942;11.804;2023-06-10T04:33:59;12.13;;;9.77;;
21827;SDS011;11076;47.942;11.804;2023-06-10T04:39:03;10.63;;;9.02;;
21827;SDS011;11076;47.942;11.804;2023-06-10T04:44:08;11.93;;;9.35;;
21827;SDS011;11076;47.942;11.804;2023-06-10T04:49:12;12.00;;;9.13;;
21827;SDS011;11076;47.942;11.804;2023-06-10T04:54:16;11.93;;;9.18;;
21827;SDS011;11076;47.942;11.804;2023-06-10T04:59:18;12.02;;;9.93;;
21827;SDS011;11076;47.942;11.804;2023-06-10T05:04:21;11.20;;;10.02;;
21827;SDS011;11076;47.942;11.804;2023-06-10T05:09:23;15.48;;;9.77;;
21827;SDS011;11076;47.942;11.804;2023-06-10T05:14:26;11.98;;;10.15;;
21827;SDS011;11076;47.942;11.804;2023-06-10T05:19:29;9.88;;;8.35;;
21827;SDS011;11076;47.942;11.804;2023-06-10T05:24:31;14.07;;;8.68;;
21827;SDS011;11076;47.942;11.804;2023-06-10T05:29:34;11.20;;;9.70;;
21827;SDS011;11076;47.942;11.804;2023-06-10T05:34:36;10.55;;;9.43;;
21827;SDS011;11076;47.942;11.804;2023-06-10T05:39:39;10.55;;;8.95;;
21827;SDS011;11076;47.942;11.804;2023-06-10T05:44:42;10.23;;;8.68;;
21827;SDS011;11076;47.942;11.804;2023-06-10T05:49:44;9.88;;;8.90;;
21827;SDS011;11076;47.942;11.804;2023-06-10T05:54:48;8.93;;;8.13;;
21827;SDS011;11076;47.942;11.804;2023-06-10T05:59:51;9.43;;;8.13;;
21827;SDS011;11076;47.942;11.804;2023-06-10T06:04:54;8.98;;;8.18;;
21827;SDS011;11076;47.942;11.804;2023-06-10T06:09:56;9.38;;;8.48;;
21827;SDS011;11076;47.942;11.804;2023-06-10T06:14:59;10.10;;;9.15;;
21827;SDS011;11076;47.942;11.804;2023-06-10T06:20:02;10.55;;;9.55;;
21827;SDS011;11076;47.942;11.804;2023-06-10T06:25:05;10.15;;;9.15;;
21827;SDS011;11076;47.942;11.804;2023-06-10T06:30:08;12.25;;;9.20;;
21827;SDS011;11076;47.942;11.804;2023-06-10T06:35:11;12.50;;;9.70;;
21827;SDS011;11076;47.942;11.804;2023-06-10T06:40:13;10.63;;;9.50;;
21827;SDS011;11076;47.942;11.804;2023-06-10T06:45:16;12.27;;;10.05;;
21827;SDS011;11076;47.942;11.804;2023-06-10T06:50:18;12.77;;;11.38;;
21827;SDS011;11076;47.942;11.804;2023-06-10T06:55:21;12.02;;;10.82;;
21827;SDS011;11076;47.942;11.804;2023-06-10T07:00:23;14.63;;;11.48;;
21827;SDS011;11076;47.942;11.804;2023-06-10T07:05:26;12.13;;;9.93;;
21827;SDS011;11076;47.942;11.804;2023-06-10T07:10:29;13.30;;;10.27;;
21827;SDS011;11076;47.942;11.804;2023-06-10T07:15:31;12.45;;;10.68;;
21827;SDS011;11076;47.942;11.804;2023-06-10T07:20:35;11.50;;;10.27;;
21827;SDS011;11076;47.942;11.804;2023-06-10T07:25:37;13.95;;;10.70;;
21827;SDS011;11076;47.942;11.804;2023-06-10T07:30:40;14.88;;;10.23;;
21827;SDS011;11076;47.942;11.804;2023-06-10T07:35:42;12.60;;;10.13;;
21827;SDS011;11076;47.942;11.804;2023-06-10T07:40:45;15.30;;;9.73;;
21827;SDS011;11076;47.942;11.804;2023-06-10T07:45:47;12.18;;;10.80;;
21827;SDS011;11076;47.942;11.804;2023-06-10T07:50:50;13.57;;;9.82;;
21827;SDS011;11076;47.942;11.804;2023-06-10T07:55:52;11.32;;;8.93;;
21827;SDS011;11076;47.942;11.804;2023-06-10T08:00:55;12.10;;;9.05;;
21827;SDS011;11076;47.942;11.804;2023-06-10T08:05:57;10.13;;;8.85;;
21827;SDS011;11076;47.942;11.804;2023-06-10T08:10:59;12.05;;;8.88;;
21827;SDS011;11076;47.942;11.804;2023-06-10T08:16:02;10.10;;;8.10;;
21827;SDS011;11076;47.942;11.804;2023-06-10T08:21:05;8.05;;;7.25;;
21827;SDS011;11076;47.942;11.804;2023-06-10T08:26:07;7.13;;;6.38;;
21827;SDS011;11076;47.942;11.804;2023-06-10T08:31:10;8.13;;;7.30;;
21827;SDS011;11076;47.942;11.804;2023-06-10T08:36:12;8.38;;;6.35;;
21827;SDS011;11076;47.942;11.804;2023-06-10T08:41:15;9.73;;;6.63;;
21827;SDS011;11076;47.942;11.804;2023-06-10T08:46:19;7.22;;;6.45;;
21827;SDS011;11076;47.942;11.804;2023-06-10T08:51:22;12.15;;;5.65;;
21827;SDS011;11076;47.942;11.804;2023-06-10T08:56:26;7.85;;;6.18;;
21827;SDS011;11076;47.942;11.804;2023-06-10T09:01:31;6.25;;;5.40;;
21827;SDS011;11076;47.942;11.804;2023-06-10T09:06:34;8.30;;;6.65;;
21827;SDS011;11076;47.942;11.804;2023-06-10T09:11:38;8.25;;;6.82;;
21827;SDS011;11076;47.942;11.804;2023-06-10T09:16:40;6.97;;;6.20;;
21827;SDS011;11076;47.942;11.804;2023-06-10T09:21:43;8.35;;;6.15;;
21827;SDS011;11076;47.942;11.804;2023-06-10T09:26:46;6.95;;;5.68;;
21827;SDS011;11076;47.942;11.804;2023-06-10T09:31:48;8.25;;;7.45;;
21827;SDS011;11076;47.942;11.804;2023-06-10T09:36:51;12.13;;;7.05;;
21827;SDS011;11076;47.942;11.804;2023-06-10T09:41:53;7.75;;;6.97;;
21827;SDS011;11076;47.942;11.804;2023-06-10T09:46:56;8.55;;;6.05;;
21827;SDS011;11076;47.942;11.804;2023-06-10T09:52:01;12.32;;;6.40;;
21827;SDS011;11076;47.942;11.804;2023-06-10T09:57:07;12.00;;;4.43;;
21827;SDS011;11076;47.942;11.804;2023-06-10T10:02:18;4.97;;;4.47;;
21827;SDS011;11076;47.942;11.804;2023-06-10T10:07:21;5.65;;;4.70;;
21827;SDS011;11076;47.942;11.804;2023-06-10T10:12:23;5.47;;;4.40;;
21827;SDS011;11076;47.942;11.804;2023-06-10T10:17:27;9.88;;;4.40;;
21827;SDS011;11076;47.942;11.804;2023-06-10T10:22:30;4.85;;;4.28;;
21827;SDS011;11076;47.942;11.804;2023-06-10T10:38:03;6.85;;;5.00;;
21827;SDS011;11076;47.942;11.804;2023-06-10T10:43:07;4.90;;;4.40;;
21827;SDS011;11076;47.942;11.804;2023-06-10T10:48:10;6.32;;;5.32;;
21827;SDS011;11076;47.942;11.804;2023-06-10T10:53:14;6.20;;;4.90;;
21827;SDS011;11076;47.942;11.804;2023-06-10T10:58:24;6.53;;;5.10;;
21827;SDS011;11076;47.942;11.804;2023-06-10T11:03:28;6.10;;;4.38;;
21827;SDS011;11076;47.942;11.804;2023-06-10T11:13:36;4.15;;;3.75;;
21827;SDS011;11076;47.942;11.804;2023-06-10T11:18:40;4.93;;;3.60;;
21827;SDS011;11076;47.942;11.804;2023-06-10T11:23:43;4.30;;;3.90;;
21827;SDS011;11076;47.942;11.804;2023-06-10T11:34:01;4.20;;;3.80;;
21827;SDS011;11076;47.942;11.804;2023-06-10T11:39:08;2.72;;;2.53;;
21827;SDS011;11076;47.942;11.804;2023-06-10T11:44:12;3.58;;;3.20;;
21827;SDS011;11076;47.942;11.804;2023-06-10T11:49:17;6.45;;;3.20;;
21827;SDS011;11076;47.942;11.804;2023-06-10T11:54:19;3.90;;;2.78;;
21827;SDS011;11076;47.942;11.804;2023-06-10T11:59:26;4.75;;;2.95;;
21827;SDS011;11076;47.942;11.804;2023-06-10T12:04:30;3.88;;;3.50;;
21827;SDS011;11076;47.942;11.804;2023-06-10T12:09:32;4.57;;;2.90;;
21827;SDS011;11076;47.942;11.804;2023-06-10T12:20:05;5.10;;;3.03;;
21827;SDS011;11076;47.942;11.804;2023-06-10T12:25:11;3.67;;;3.25;;
21827;SDS011;11076;47.942;11.804;2023-06-10T12:30:18;6.88;;;3.30;;
21827;SDS011;11076;47.942;11.804;2023-06-10T12:35:25;3.78;;;3.47;;
21827;SDS011;11076;47.942;11.804;2023-06-10T12:40:30;5.57;;;2.83;;
21827;SDS011;11076;47.942;11.804;2023-06-10T12:45:34;2.70;;;2.50;;
21827;SDS011;11076;47.942;11.804;2023-06-10T12:50:41;2.97;;;2.70;;
21827;SDS011;11076;47.942;11.804;2023-06-10T12:55:44;4.00;;;3.40;;
21827;SDS011;11076;47.942;11.804;2023-06-10T13:00:49;3.72;;;3.42;;
21827;SDS011;11076;47.942;11.804;2023-06-10T13:05:54;4.55;;;3.95;;
21827;SDS011;11076;47.942;11.804;2023-06-10T13:10:57;4.13;;;3.72;;
21827;SDS011;11076;47.942;11.804;2023-06-10T13:15:59;4.85;;;4.30;;
21827;SDS011;11076;47.942;11.804;2023-06-10T13:21:03;7.20;;;4.72;;
21827;SDS011;11076;47.942;11.804;2023-06-10T13:26:06;5.90;;;4.32;;
21827;SDS011;11076;47.942;11.804;2023-06-10T13:31:08;5.03;;;3.95;;
21827;SDS011;11076;47.942;11.804;2023-06-10T13:36:11;4.40;;;4.00;;
21827;SDS011;11076;47.942;11.804;2023-06-10T13:41:14;7.93;;;4.05;;
21827;SDS011;11076;47.942;11.804;2023-06-10T13:46:16;4.68;;;3.72;;
21827;SDS011;11076;47.942;11.804;2023-06-10T13:51:19;5.05;;;3.63;;
21827;SDS011;11076;47.942;11.804;2023-06-10T13:56:21;3.67;;;3.33;;
21827;SDS011;11076;47.942;11.804;2023-06-10T14:01:24;4.10;;;3.13;;
21827;SDS011;11076;47.942;11.804;2023-06-10T14:06:27;3.72;;;3.30;;
21827;SDS011;11076;47.942;11.804;2023-06-10T14:11:29;3.28;;;2.78;;
21827;SDS011;11076;47.942;11.804;2023-06-10T14:16:33;3.22;;;2.95;;
21827;SDS011;11076;47.942;11.804;2023-06-10T14:21:36;2.60;;;2.45;;
21827;SDS011;11076;47.942;11.804;2023-06-10T14:26:38;3.00;;;2.70;;
21827;SDS011;11076;47.942;11.804;2023-06-10T14:31:41;2.65;;;2.45;;
21827;SDS011;11076;47.942;11.804;2023-06-10T14:36:43;3.60;;;3.00;;
21827;SDS011;11076;47.942;11.804;2023-06-10T14:41:46;3.25;;;2.63;;
21827;SDS011;11076;47.942;11.804;2023-06-10T14:46:48;3.53;;;2.85;;
21827;SDS011;11076;47.942;11.804;2023-06-10T14:51:50;3.03;;;2.83;;
21827;SDS011;11076;47.942;11.804;2023-06-10T14:56:53;2.70;;;2.50;;
21827;SDS011;11076;47.942;11.804;2023-06-10T15:01:55;3.00;;;2.28;;
21827;SDS011;11076;47.942;11.804;2023-06-10T15:06:58;3.60;;;2.35;;
21827;SDS011;11076;47.942;11.804;2023-06-10T15:12:00;2.80;;;2.60;;
21827;SDS011;11076;47.942;11.804;2023-06-10T15:17:03;2.92;;;2.72;;
21827;SDS011;11076;47.942;11.804;2023-06-10T15:22:05;2.58;;;2.38;;
21827;SDS011;11076;47.942;11.804;2023-06-10T15:27:08;3.58;;;2.78;;
21827;SDS011;11076;47.942;11.804;2023-06-10T15:32:10;2.55;;;2.30;;
21827;SDS011;11076;47.942;11.804;2023-06-10T15:37:19;3.20;;;3.00;;
21827;SDS011;11076;47.942;11.804;2023-06-10T15:42:22;8.18;;;7.03;;
21827;SDS011;11076;47.942;11.804;2023-06-10T15:47:25;8.93;;;4.65;;
21827;SDS011;11076;47.942;11.804;2023-06-10T15:52:28;10.55;;;5.05;;
21827;SDS011;11076;47.942;11.804;2023-06-10T15:57:30;3.80;;;3.45;;
21827;SDS011;11076;47.942;11.804;2023-06-10T16:02:33;4.68;;;3.60;;
21827;SDS011;11076;47.942;11.804;2023-06-10T16:07:37;9.80;;;8.10;;
21827;SDS011;11076;47.942;11.804;2023-06-10T16:12:40;11.25;;;9.80;;
21827;SDS011;11076;47.942;11.804;2023-06-10T16:17:43;8.35;;;6.85;;
21827;SDS011;11076;47.942;11.804;2023-06-10T16:22:45;11.48;;;5.30;;
21827;SDS011;11076;47.942;11.804;2023-06-10T16:27:47;5.75;;;4.68;;
21827;SDS011;11076;47.942;11.804;2023-06-10T16:32:50;6.05;;;5.45;;
21827;SDS011;11076;47.942;11.804;2023-06-10T16:37:52;5.25;;;4.75;;
21827;SDS011;11076;47.942;11.804;2023-06-10T16:42:54;7.00;;;4.78;;
21827;SDS011;11076;47.942;11.804;2023-06-10T16:47:57;5.40;;;5.00;;
21827;SDS011;11076;47.942;11.804;2023-06-10T16:52:59;5.75;;;4.68;;
21827;SDS011;11076;47.942;11.804;2023-06-10T16:58:02;5.93;;;4.82;;
21827;SDS011;11076;47.942;11.804;2023-06-10T17:03:04;5.75;;;5.25;;
21827;SDS011;11076;47.942;11.804;2023-06-10T17:08:07;10.40;;;6.20;;
21827;SDS011;11076;47.942;11.804;2023-06-10T17:13:10;8.32;;;6.78;;
21827;SDS011;11076;47.942;11.804;2023-06-10T17:18:12;5.35;;;4.85;;
21827;SDS011;11076;47.942;11.804;2023-06-10T17:23:14;4.35;;;3.92;;
21827;SDS011;11076;47.942;11.804;2023-06-10T17:28:17;9.15;;;7.00;;
21827;SDS011;11076;47.942;11.804;2023-06-10T17:33:20;3.60;;;3.22;;
21827;SDS011;11076;47.942;11.804;2023-06-10T17:38:22;6.50;;;3.45;;
21827;SDS011;11076;47.942;11.804;2023-06-10T17:43:25;5.78;;;4.50;;
21827;SDS011;11076;47.942;11.804;2023-06-10T17:48:27;4.80;;;4.40;;
21827;SDS011;11076;47.942;11.804;2023-06-10T17:53:30;7.85;;;7.15;;
21827;SDS011;11076;47.942;11.804;2023-06-10T17:58:32;16.73;;;9.65;;
21827;SDS011;11076;47.942;11.804;2023-06-10T18:03:34;6.35;;;5.65;;
21827;SDS011;11076;47.942;11.804;2023-06-10T18:08:38;6.68;;;4.85;;
21827;SDS011;11076;47.942;11.804;2023-06-10T18:13:41;5.50;;;4.70;;
21827;SDS011;11076;47.942;11.804;2023-06-10T18:18:43;6.80;;;5.13;;
21827;SDS011;11076;47.942;11.804;2023-06-10T18:23:46;5.75;;;5.15;;
21827;SDS011;11076;47.942;11.804;2023-06-10T18:28:48;5.30;;;4.80;;
21827;SDS011;11076;47.942;11.804;2023-06-10T18:33:50;5.88;;;5.18;;
21827;SDS011;11076;47.942;11.804;2023-06-10T18:38:53;12.63;;;5.53;;
21827;SDS011;11076;47.942;11.804;2023-06-10T18:43:55;6.00;;;5.40;;
21827;SDS011;11076;47.942;11.804;2023-06-10T18:48:58;7.05;;;6.03;;
21827;SDS011;11076;47.942;11.804;2023-06-10T18:54:00;7.68;;;6.13;;
21827;SDS011;11076;47.942;11.804;2023-06-10T18:59:04;8.98;;;6.68;;
21827;SDS011;11076;47.942;11.804;2023-06-10T19:04:07;7.22;;;6.53;;
21827;SDS011;11076;47.942;11.804;2023-06-10T19:09:10;7.90;;;6.05;;
21827;SDS011;11076;47.942;11.804;2023-06-10T19:14:12;8.48;;;6.95;;
21827;SDS011;11076;47.942;11.804;2023-06-10T19:19:15;8.13;;;7.15;;
21827;SDS011;11076;47.942;11.804;2023-06-10T19:24:17;9.65;;;7.43;;
21827;SDS011;11076;47.942;11.804;2023-06-10T19:29:20;9.35;;;7.70;;
21827;SDS011;11076;47.942;11.804;2023-06-10T19:34:22;8.48;;;7.13;;
21827;SDS011;11076;47.942;11.804;2023-06-10T19:39:25;8.90;;;7.28;;
21827;SDS011;11076;47.942;11.804;2023-06-10T19:44:27;9.48;;;7.57;;
21827;SDS011;11076;47.942;11.804;2023-06-10T19:49:29;8.65;;;7.78;;
21827;SDS011;11076;47.942;11.804;2023-06-10T19:54:32;8.15;;;7.28;;
21827;SDS011;11076;47.942;11.804;2023-06-10T19:59:35;9.70;;;8.48;;
21827;SDS011;11076;47.942;11.804;2023-06-10T20:04:38;11.13;;;8.40;;
21827;SDS011;11076;47.942;11.804;2023-06-10T20:09:40;9.05;;;8.13;;
21827;SDS011;11076;47.942;11.804;2023-06-10T20:14:43;12.55;;;8.65;;
21827;SDS011;11076;47.942;11.804;2023-06-10T20:19:48;9.43;;;8.43;;
21827;SDS011;11076;47.942;11.804;2023-06-10T20:24:54;10.07;;;8.45;;
21827;SDS011;11076;47.942;11.804;2023-06-10T20:29:56;10.23;;;8.52;;
21827;SDS011;11076;47.942;11.804;2023-06-10T20:34:59;9.90;;;8.88;;
21827;SDS011;11076;47.942;11.804;2023-06-10T20:40:01;11.25;;;7.97;;
21827;SDS011;11076;47.942;11.804;2023-06-10T20:45:06;9.63;;;8.10;;
21827;SDS011;11076;47.942;11.804;2023-06-10T20:50:09;9.57;;;8.25;;
21827;SDS011;11076;47.942;11.804;2023-06-10T20:55:12;11.15;;;8.82;;
21827;SDS011;11076;47.942;11.804;2023-06-10T21:00:14;10.90;;;8.90;;
21827;SDS011;11076;47.942;11.804;2023-06-10T21:05:17;13.27;;;8.38;;
21827;SDS011;11076;47.942;11.804;2023-06-10T21:10:19;11.98;;;8.38;;
21827;SDS011;11076;47.942;11.804;2023-06-10T21:15:22;9.77;;;8.10;;
21827;SDS011;11076;47.942;11.804;2023-06-10T21:20:24;8.85;;;7.78;;
21827;SDS011;11076;47.942;11.804;2023-06-10T21:25:27;8.88;;;7.97;;
21827;SDS011;11076;47.942;11.804;2023-06-10T21:30:29;10.63;;;8.38;;
21827;SDS011;11076;47.942;11.804;2023-06-10T21:35:32;10.88;;;8.52;;
21827;SDS011;11076;47.942;11.804;2023-06-10T21:40:34;8.65;;;7.75;;
21827;SDS011;11076;47.942;11.804;2023-06-10T21:45:36;9.98;;;8.60;;
21827;SDS011;11076;47.942;11.804;2023-06-10T21:50:39;11.85;;;8.52;;
21827;SDS011;11076;47.942;11.804;2023-06-10T21:55:41;10.98;;;8.25;;
21827;SDS011;11076;47.942;11.804;2023-06-10T22:00:44;12.60;;;9.48;;
21827;SDS011;11076;47.942;11.804;2023-06-10T22:05:46;9.52;;;8.43;;
21827;SDS011;11076;47.942;11.804;2023-06-10T22:10:48;10.05;;;9.05;;
21827;SDS011;11076;47.942;11.804;2023-06-10T22:15:51;11.93;;;8.55;;
21827;SDS011;11076;47.942;11.804;2023-06-10T22:20:53;11.73;;;9.98;;
21827;SDS011;11076;47.942;11.804;2023-06-10T22:25:56;11.63;;;9.50;;
21827;SDS011;11076;47.942;11.804;2023-06-10T22:30:58;16.90;;;9.20;;
21827;SDS011;11076;47.942;11.804;2023-06-10T22:36:01;16.05;;;10.02;;
21827;SDS011;11076;47.942;11.804;2023-06-10T22:41:03;11.15;;;9.90;;
21827;SDS011;11076;47.942;11.804;2023-06-10T22:46:05;13.63;;;10.55;;
21827;SDS011;11076;47.942;11.804;2023-06-10T22:51:08;12.35;;;10.70;;
21827;SDS011;11076;47.942;11.804;2023-06-10T22:56:10;17.15;;;11.65;;
21827;SDS011;11076;47.942;11.804;2023-06-10T23:01:12;12.32;;;10.43;;
21827;SDS011;11076;47.942;11.804;2023-06-10T23:06:15;15.13;;;12.43;;
21827;SDS011;11076;47.942;11.804;2023-06-10T23:11:17;13.73;;;11.73;;
21827;SDS011;11076;47.942;11.804;2023-06-10T23:16:20;18.48;;;12.13;;
21827;SDS011;11076;47.942;11.804;2023-06-10T23:21:22;15.60;;;12.50;;
21827;SDS011;11076;47.942;11.804;2023-06-10T23:26:25;16.83;;;11.85;;
21827;SDS011;11076;47.942;11.804;2023-06-10T23:31:28;13.55;;;11.80;;
21827;SDS011;11076;47.942;11.804;2023-06-10T23:36:31;16.27;;;12.07;;
21827;SDS011;11076;47.942;11.804;2023-06-10T23:41:33;15.05;;;11.15;;
21827;SDS011;11076;47.942;11.804;2023-06-10T23:46:37;14.65;;;11.85;;
21827;SDS011;11076;47.942;11.804;2023-06-10T23:51:40;19.10;;;13.25;;
21827;SDS011;11076;47.942;11.804;2023-06-10T23:56:42;16.27;;;12.70;;
